sensor_id;sensor_type;location;lat;lon;timestamp;temperature;humidity
11204;DHT22;5659;49.408;11.116;2023-02-13T21:52:17;0.60;99.90
11204;DHT22;5659;49.408;11.116;2023-02-13T21:54:43;0.30;99.90
11204;DHT22;5659;49.408;11.116;2023-02-13T21:57:09;0.30;99.90
11204;DHT22;5659;49.408;11.116;2023-02-13T21:59:34;0.40;99.90
11204;DHT22;5659;49.408;11.116;2023-02-13T22:06:53;0.50;99.90
11204;DHT22;5659;49.408;11.116;2023-02-13T22:09:19;0.50;99.90
11204;DHT22;5659;49.408;11.116;2023-02-13T22:11:45;0.70;99.90
11204;DHT22;5659;49.408;11.116;2023-02-13T22:14:14;0.50;99.90
11204;DHT22;5659;49.408;11.116;2023-02-13T22:16:41;0.60;99.90
11204;DHT22;5659;49.408;11.116;2023-02-13T22:19:09;0.90;99.90
11204;DHT22;5659;49.408;11.116;2023-02-13T22:21:36;0.80;99.90
11204;DHT22;5659;49.408;11.116;2023-02-13T22:24:02;0.70;99.90
11204;DHT22;5659;49.408;11.116;2023-02-13T22:26:34;0.80;99.90
11204;DHT22;5659;49.408;11.116;2023-02-13T22:29:10;1.30;99.90
11204;DHT22;5659;49.408;11.116;2023-02-13T22:31:36;0.80;99.90
11204;DHT22;5659;49.408;11.116;2023-02-13T22:34:03;0.80;99.90
11204;DHT22;5659;49.408;11.116;2023-02-13T22:36:28;0.80;99.90
11204;DHT22;5659;49.408;11.116;2023-02-13T22:38:54;0.80;99.90
11204;DHT22;5659;49.408;11.116;2023-02-13T22:41:24;0.90;99.90
11204;DHT22;5659;49.408;11.116;2023-02-13T22:43:50;0.80;99.90
11204;DHT22;5659;49.408;11.116;2023-02-13T22:46:26;0.90;99.90
11204;DHT22;5659;49.408;11.116;2023-02-13T22:48:52;0.90;99.90
11204;DHT22;5659;49.408;11.116;2023-02-13T22:51:24;0.90;99.90
11204;DHT22;5659;49.408;11.116;2023-02-13T22:53:54;0.90;99.90
11204;DHT22;5659;49.408;11.116;2023-02-13T22:56:21;1.00;99.90
11204;DHT22;5659;49.408;11.116;2023-02-13T22:58:46;0.90;99.90
11204;DHT22;5659;49.408;11.116;2023-02-13T23:01:15;1.00;99.90
11204;DHT22;5659;49.408;11.116;2023-02-13T23:03:42;1.00;99.90
11204;DHT22;5659;49.408;11.116;2023-02-13T23:06:09;1.00;99.90
11204;DHT22;5659;49.408;11.116;2023-02-13T23:08:35;1.00;99.90
11204;DHT22;5659;49.408;11.116;2023-02-13T23:11:10;0.90;99.90
11204;DHT22;5659;49.408;11.116;2023-02-13T23:13:55;1.00;99.90
11204;DHT22;5659;49.408;11.116;2023-02-13T23:16:20;1.10;99.90
11204;DHT22;5659;49.408;11.116;2023-02-13T23:18:51;1.10;99.90
11204;DHT22;5659;49.408;11.116;2023-02-13T23:21:17;1.10;99.90
11204;DHT22;5659;49.408;11.116;2023-02-13T23:23:42;1.00;99.90
11204;DHT22;5659;49.408;11.116;2023-02-13T23:26:08;1.00;99.90
11204;DHT22;5659;49.408;11.116;2023-02-13T23:28:34;1.10;99.90
11204;DHT22;5659;49.408;11.116;2023-02-13T23:31:00;1.10;99.90
11204;DHT22;5659;49.408;11.116;2023-02-13T23:33:27;1.00;99.90
11204;DHT22;5659;49.408;11.116;2023-02-13T23:35:52;1.00;99.90
11204;DHT22;5659;49.408;11.116;2023-02-13T23:38:19;1.10;99.90
11204;DHT22;5659;49.408;11.116;2023-02-13T23:43:10;1.20;99.90
11204;DHT22;5659;49.408;11.116;2023-02-13T23:45:36;1.20;99.90
11204;DHT22;5659;49.408;11.116;2023-02-13T23:48:03;1.40;99.90
11204;DHT22;5659;49.408;11.116;2023-02-13T23:50:29;1.30;99.90
11204;DHT22;5659;49.408;11.116;2023-02-13T23:52:58;1.40;99.90
11204;DHT22;5659;49.408;11.116;2023-02-13T23:55:24;1.40;99.90
